Time;durP1;ratioP1;P1;durP2;ratioP2;P2;SDS_P1;SDS_P2;PMS_P1;PMS_P2;Temp;Humidity;BMP_temperature;BMP_pressure;BME280_temperature;BME280_humidity;BME280_pressure;Samples;Min_cycle;Max_cycle;Signal;HPM_P1;HPM_P2
2022/05/21 00:00:11;;;;;;;;;;;;;;;14.34;60.31;100061.22;4969917;28;1998;-96
2022/05/21 00:02:38;;;;;;;;;;;;;;;14.32;60.43;100053.34;4960954;28;1177;-96
2022/05/21 00:05:04;;;;;;;;;;;;;;;14.32;60.46;100049.81;4961755;28;2019;-96
2022/05/21 00:07:31;;;;;;;;;;;;;;;14.31;60.40;100051.69;4960955;28;1174;-96
2022/05/21 00:09:57;;;;;;;;;;;;;;;14.32;60.42;100047.09;4945062;28;1186;-96
2022/05/21 00:12:23;;;;;;;;;;;;;;;14.31;60.26;100050.88;4960957;28;1379;-96
2022/05/21 00:14:52;;;;;;;;;;;;;;;14.31;60.25;100053.59;4945090;28;1304;-96
2022/05/21 00:17:18;;;;;;;;;;;;;;;14.30;60.40;100039.25;4945732;28;1911;-96
2022/05/21 00:19:44;;;;;;;;;;;;;;;14.29;60.37;100037.63;4960694;28;1658;-96
2022/05/21 00:22:11;;;;;;;;;;;;;;;14.30;60.39;100039.25;4960453;28;1311;-96
2022/05/21 00:24:37;;;;;;;;;;;;;;;14.29;60.40;100037.63;4945597;28;1181;-96
2022/05/21 00:27:03;;;;;;;;;;;;;;;14.28;60.40;100029.72;4960481;28;1373;-96
2022/05/21 00:29:30;;;;;;;;;;;;;;;14.28;60.33;100027.84;4960273;28;1603;-96
2022/05/21 00:31:56;;;;;;;;;;;;;;;14.27;60.26;100033.53;4962324;28;1308;-96
2022/05/21 00:34:23;;;;;;;;;;;;;;;14.27;60.14;100025.41;4959818;28;1277;-96
2022/05/21 00:36:49;;;;;;;;;;;;;;;14.25;60.12;100025.63;4945455;28;1975;-96
2022/05/21 00:39:15;;;;;;;;;;;;;;;14.26;60.29;100026.44;4987001;28;1640;-96
2022/05/21 00:41:42;;;;;;;;;;;;;;;14.25;60.20;100022.13;4959194;28;1604;-96
2022/05/21 00:44:08;;;;;;;;;;;;;;;14.24;60.21;100018.59;4991453;28;1279;-96
2022/05/21 00:46:35;;;;;;;;;;;;;;;14.24;60.07;100023.22;4945030;28;1399;-96
2022/05/21 00:49:01;;;;;;;;;;;;;;;14.24;60.07;100028.63;4959886;28;1205;-96
2022/05/21 00:51:27;;;;;;;;;;;;;;;14.24;60.25;100020.50;4945032;28;1406;-96
2022/05/21 00:53:54;;;;;;;;;;;;;;;14.23;60.15;100008.81;4950236;28;1639;-96
2022/05/21 00:56:20;;;;;;;;;;;;;;;14.22;60.28;100007.19;4959071;28;1907;-96
2022/05/21 01:01:30;;;;;;;;;;;;;;;14.21;60.25;99991.22;4973416;28;1673;-96
2022/05/21 01:03:57;;;;;;;;;;;;;;;14.20;60.15;99990.38;4974983;28;1282;-96
2022/05/21 01:06:23;;;;;;;;;;;;;;;14.20;60.26;99992.28;4944753;28;1276;-96
2022/05/21 01:08:49;;;;;;;;;;;;;;;14.19;60.07;99986.03;4969985;28;1701;-96
2022/05/21 01:11:16;;;;;;;;;;;;;;;14.19;60.19;99988.75;4959242;28;1242;-96
2022/05/21 01:13:42;;;;;;;;;;;;;;;14.18;60.19;99989.84;4958322;28;1717;-96
2022/05/21 01:16:09;;;;;;;;;;;;;;;14.18;60.05;99991.72;4956072;28;1987;-96
2022/05/21 01:18:35;;;;;;;;;;;;;;;14.18;60.21;99991.72;4961001;28;1753;-96
2022/05/21 01:21:01;;;;;;;;;;;;;;;14.18;60.05;99991.72;4959198;28;1423;-96
2022/05/21 01:23:28;;;;;;;;;;;;;;;14.16;59.92;99983.84;4948152;28;1611;-96
2022/05/21 01:25:54;;;;;;;;;;;;;;;14.15;60.11;99993.06;4960253;28;1723;-96
2022/05/21 01:28:21;;;;;;;;;;;;;;;14.15;60.13;99995.78;4959208;28;1690;-96
2022/05/21 01:30:47;;;;;;;;;;;;;;;14.15;60.11;99986.81;4958818;28;1753;-96
2022/05/21 01:33:13;;;;;;;;;;;;;;;14.15;60.11;99993.06;4960245;28;1675;-96
2022/05/21 01:35:40;;;;;;;;;;;;;;;14.14;60.12;99991.41;4959001;28;1671;-96
2022/05/21 01:38:07;;;;;;;;;;;;;;;14.14;59.86;99996.00;4957850;28;1910;-96
2022/05/21 01:40:33;;;;;;;;;;;;;;;14.12;59.87;99993.56;4957015;28;2047;-96
2022/05/21 01:45:43;;;;;;;;;;;;;;;14.11;59.98;99991.09;4943782;28;1766;-96
2022/05/21 01:48:10;;;;;;;;;;;;;;;14.12;60.03;99992.72;4966309;28;1805;-96
2022/05/21 01:50:36;;;;;;;;;;;;;;;14.11;60.04;99996.53;4959605;28;1671;-96
2022/05/21 01:53:03;;;;;;;;;;;;;;;14.11;60.05;99996.53;4959126;28;1660;-96
2022/05/21 01:55:29;;;;;;;;;;;;;;;14.09;60.03;99997.59;4969712;28;1695;-96
2022/05/21 01:57:56;;;;;;;;;;;;;;;14.09;59.98;99994.09;4959427;28;1891;-96
2022/05/21 02:00:22;;;;;;;;;;;;;;;14.08;59.94;99993.25;4958953;28;1915;-96
2022/05/21 02:02:48;;;;;;;;;;;;;;;14.07;59.76;99991.63;4972311;28;2121;-96
2022/05/21 02:05:15;;;;;;;;;;;;;;;14.07;60.05;99991.63;4956226;28;1892;-96
2022/05/21 02:07:41;;;;;;;;;;;;;;;14.06;59.96;99991.91;4959351;28;1607;-96
2022/05/21 02:10:08;;;;;;;;;;;;;;;14.06;60.01;99989.19;4958718;28;1733;-96
2022/05/21 02:12:34;;;;;;;;;;;;;;;14.05;59.98;99980.22;4979067;28;1794;-96
2022/05/21 02:15:00;;;;;;;;;;;;;;;14.06;59.91;99981.06;4957258;28;1750;-96
2022/05/21 02:17:27;;;;;;;;;;;;;;;14.05;59.86;99982.94;4957336;28;1914;-96
2022/05/21 02:19:53;;;;;;;;;;;;;;;14.04;59.73;99984.00;4959906;28;1868;-96
2022/05/21 02:22:19;;;;;;;;;;;;;;;14.04;59.87;99984.00;4991091;28;1637;-96
2022/05/21 02:24:46;;;;;;;;;;;;;;;14.03;59.75;99982.41;4959649;28;1615;-96
2022/05/21 02:27:12;;;;;;;;;;;;;;;14.01;59.92;99981.81;4958415;28;1753;-96
2022/05/21 02:29:39;;;;;;;;;;;;;;;14.03;59.93;99981.56;4956186;28;1667;-96
2022/05/21 02:32:05;;;;;;;;;;;;;;;14.02;59.78;99977.22;4955433;28;1745;-96
2022/05/21 02:34:32;;;;;;;;;;;;;;;14.01;59.79;99981.81;4959248;28;1710;-96
2022/05/21 02:39:42;;;;;;;;;;;;;;;14.00;59.92;99977.50;4969565;28;1756;-96
2022/05/21 02:42:43;;;;;;;;;;;;;;;13.99;59.67;99977.72;4958880;28;1664;-96
2022/05/21 02:44:55;;;;;;;;;;;;;;;13.99;59.75;99975.03;4957626;28;1797;-96
2022/05/21 02:47:21;;;;;;;;;;;;;;;13.98;59.86;99979.63;4950936;28;1827;-96
2022/05/21 02:49:48;;;;;;;;;;;;;;;13.98;59.76;99971.50;4958315;28;1659;-96
2022/05/21 02:52:15;;;;;;;;;;;;;;;13.98;59.73;99976.09;4983984;28;1642;-96
2022/05/21 02:54:41;;;;;;;;;;;;;;;13.96;59.51;99976.34;4958452;28;1699;-96
2022/05/21 02:57:08;;;;;;;;;;;;;;;13.97;59.67;99969.03;4955950;28;1914;-96
2022/05/21 02:59:35;;;;;;;;;;;;;;;13.96;59.85;99972.84;4951645;28;1682;-96
2022/05/21 03:02:01;;;;;;;;;;;;;;;13.94;59.56;99967.69;4956543;28;1896;-96
2022/05/21 03:04:28;;;;;;;;;;;;;;;13.95;59.61;99968.50;4951508;28;1767;-96
2022/05/21 03:06:54;;;;;;;;;;;;;;;13.94;59.56;99974.97;4958548;28;1683;-96
2022/05/21 03:12:05;;;;;;;;;;;;;;;13.92;59.74;99975.25;4958917;28;1781;-96
2022/05/21 03:14:31;;;;;;;;;;;;;;;13.93;59.67;99973.34;4973369;28;1974;-96
2022/05/21 03:17:00;;;;;;;;;;;;;;;13.91;59.53;99973.59;4989939;28;1965;-96
2022/05/21 03:19:26;;;;;;;;;;;;;;;13.91;59.69;99967.34;4945246;28;1248;-96
2022/05/21 03:21:53;;;;;;;;;;;;;;;13.91;59.55;99968.16;4965132;28;1660;-96
2022/05/21 03:24:19;;;;;;;;;;;;;;;13.90;59.61;99966.53;4973470;28;1223;-96
2022/05/21 03:26:46;;;;;;;;;;;;;;;13.91;59.64;99961.94;4954255;29;1222;-96
2022/05/21 03:29:12;;;;;;;;;;;;;;;13.89;59.41;99956.81;4945331;28;1268;-96
2022/05/21 03:31:39;;;;;;;;;;;;;;;13.89;59.59;99964.09;4957863;28;1690;-96
2022/05/21 03:34:05;;;;;;;;;;;;;;;13.88;59.62;99962.47;4956899;28;1724;-96
2022/05/21 03:36:32;;;;;;;;;;;;;;;13.88;59.37;99959.75;4955530;28;1906;-96
2022/05/21 03:38:58;;;;;;;;;;;;;;;13.86;59.43;99960.84;4951894;28;1675;-96
2022/05/21 03:41:25;;;;;;;;;;;;;;;13.86;59.44;99963.53;4954178;28;1811;-96
2022/05/21 03:43:52;;;;;;;;;;;;;;;13.88;59.61;99970.56;4956214;28;1630;-96
2022/05/21 03:46:18;;;;;;;;;;;;;;;13.86;59.54;99960.03;4954057;28;1636;-96
2022/05/21 03:48:45;;;;;;;;;;;;;;;13.86;59.40;99960.03;4959637;28;1865;-96
2022/05/21 03:51:11;;;;;;;;;;;;;;;13.84;59.38;99960.25;4958340;28;1613;-96
2022/05/21 03:53:37;;;;;;;;;;;;;;;13.84;59.37;99965.69;4954362;29;1259;-96
2022/05/21 03:56:04;;;;;;;;;;;;;;;13.85;59.46;99966.50;4948585;28;1660;-96
2022/05/21 03:58:30;;;;;;;;;;;;;;;13.82;59.55;99959.72;4953816;29;1991;-96
2022/05/21 04:00:57;;;;;;;;;;;;;;;13.83;59.38;99963.25;4946067;28;1979;-96
2022/05/21 04:03:24;;;;;;;;;;;;;;;13.83;59.32;99965.94;4955588;28;1660;-96
2022/05/21 04:05:51;;;;;;;;;;;;;;;13.81;59.52;99958.06;4958960;28;1338;-96
2022/05/21 04:08:17;;;;;;;;;;;;;;;13.81;59.39;99959.97;4954544;29;1255;-96
2022/05/21 04:10:43;;;;;;;;;;;;;;;13.80;59.48;99964.56;4943474;28;1281;-96
2022/05/21 04:13:13;;;;;;;;;;;;;;;13.80;59.35;99959.16;4947563;28;1756;-96
2022/05/21 04:15:39;;;;;;;;;;;;;;;13.80;59.33;99963.75;4957422;28;1718;-96
2022/05/21 04:18:05;;;;;;;;;;;;;;;13.80;59.29;99972.69;4959413;28;1993;-96
2022/05/21 04:20:32;;;;;;;;;;;;;;;13.77;59.36;99961.56;4970777;28;1623;-96
2022/05/21 04:22:58;;;;;;;;;;;;;;;13.77;59.30;99956.16;4956878;28;1676;-96
2022/05/21 04:25:25;;;;;;;;;;;;;;;13.77;59.46;99958.84;4957476;28;1714;-96
2022/05/21 04:27:51;;;;;;;;;;;;;;;13.76;59.45;99955.31;4945131;28;2010;-96
2022/05/21 04:30:18;;;;;;;;;;;;;;;13.76;59.41;99946.38;4945174;28;1244;-96
2022/05/21 04:32:44;;;;;;;;;;;;;;;13.75;59.23;99950.16;4954250;28;1148;-96
2022/05/21 04:35:10;;;;;;;;;;;;;;;13.75;59.34;99959.09;4948633;28;1361;-96
2022/05/21 04:37:37;;;;;;;;;;;;;;;13.74;59.38;99957.47;4975677;28;1907;-96
2022/05/21 04:40:03;;;;;;;;;;;;;;;13.73;59.25;99966.63;4956852;29;1255;-96
2022/05/21 04:42:30;;;;;;;;;;;;;;;13.73;59.38;99961.22;4948776;28;1173;-96
2022/05/21 04:44:56;;;;;;;;;;;;;;;13.72;58.94;99965.00;4991674;28;1304;-96
2022/05/21 04:47:23;;;;;;;;;;;;;;;13.72;59.33;99965.00;4955894;29;1220;-96
2022/05/21 04:49:49;;;;;;;;;;;;;;;13.71;59.32;99957.97;4948649;28;1320;-96
2022/05/21 04:52:16;;;;;;;;;;;;;;;13.72;59.39;99958.78;4956010;29;1196;-96
2022/05/21 04:54:42;;;;;;;;;;;;;;;13.71;59.29;99963.38;4948287;28;1263;-96
2022/05/21 04:57:08;;;;;;;;;;;;;;;13.70;59.30;99963.63;4974963;28;1981;-96
2022/05/21 04:59:35;;;;;;;;;;;;;;;13.69;59.39;99959.31;4955796;29;1161;-96
2022/05/21 05:02:02;;;;;;;;;;;;;;;13.70;59.32;99958.22;4942330;29;1306;-96
2022/05/21 05:04:28;;;;;;;;;;;;;;;13.68;59.37;99965.75;4948257;28;1198;-96
2022/05/21 05:06:54;;;;;;;;;;;;;;;13.68;59.43;99958.50;4955511;29;1442;-96
2022/05/21 05:09:22;;;;;;;;;;;;;;;13.68;59.07;99963.06;4948250;28;1225;-96
2022/05/21 05:11:49;;;;;;;;;;;;;;;13.67;59.38;99956.03;4955216;29;1197;-96
2022/05/21 05:14:15;;;;;;;;;;;;;;;13.66;59.26;99959.81;4948148;28;1170;-96
2022/05/21 05:16:41;;;;;;;;;;;;;;;13.65;59.36;99959.00;4955220;29;1209;-96
2022/05/21 05:19:09;;;;;;;;;;;;;;;13.66;59.27;99965.22;4953255;28;1989;-96
2022/05/21 05:21:36;;;;;;;;;;;;;;;13.66;59.28;99965.22;4955081;29;1176;-96
2022/05/21 05:24:02;;;;;;;;;;;;;;;13.64;59.32;99960.06;4948556;28;1388;-96
2022/05/21 05:26:28;;;;;;;;;;;;;;;13.63;59.03;99970.06;4955089;29;1160;-96
2022/05/21 05:28:55;;;;;;;;;;;;;;;13.64;59.06;99970.88;4948298;28;1308;-96
2022/05/21 05:31:21;;;;;;;;;;;;;;;13.63;59.26;99967.34;4954699;29;1186;-96
2022/05/21 05:33:47;;;;;;;;;;;;;;;13.63;59.08;99980.88;4941898;29;1290;-96
2022/05/21 05:36:14;;;;;;;;;;;;;;;13.61;59.29;99974.91;4948226;28;1286;-96
2022/05/21 05:38:40;;;;;;;;;;;;;;;13.61;59.10;99985.72;4954563;29;1906;-96
2022/05/21 05:41:07;;;;;;;;;;;;;;;13.61;59.10;99980.31;4948039;28;1266;-96
2022/05/21 05:43:33;;;;;;;;;;;;;;;13.61;59.24;99985.72;4954213;28;1268;-96
2022/05/21 05:46:00;;;;;;;;;;;;;;;13.61;59.26;99982.19;4947787;28;1280;-96
2022/05/21 05:48:26;;;;;;;;;;;;;;;13.61;59.22;99976.78;4954395;29;1445;-96
2022/05/21 05:50:52;;;;;;;;;;;;;;;13.60;59.22;99984.09;4948350;28;1260;-96
2022/05/21 05:53:19;;;;;;;;;;;;;;;13.59;59.22;99977.06;4954244;29;1264;-96
2022/05/21 05:55:45;;;;;;;;;;;;;;;13.59;59.07;99985.19;4947589;28;1386;-96
2022/05/21 06:01:01;;;;;;;;;;;;;;;13.57;59.12;99981.09;4890432;28;1325;-96
2022/05/21 06:03:27;;;;;;;;;;;;;;;13.57;59.24;99986.50;4953695;29;1217;-96
2022/05/21 06:05:54;;;;;;;;;;;;;;;13.57;59.18;99995.44;4947843;28;1176;-95
2022/05/21 06:08:20;;;;;;;;;;;;;;;13.57;59.19;99990.00;4953880;29;1174;-96
2022/05/21 06:10:48;;;;;;;;;;;;;;;13.56;59.22;99985.69;4948034;28;1201;-96
2022/05/21 06:13:14;;;;;;;;;;;;;;;13.56;58.90;99980.28;4953311;29;1317;-96
2022/05/21 06:15:41;;;;;;;;;;;;;;;13.56;59.10;99984.84;4948104;28;1228;-96
2022/05/21 06:18:07;;;;;;;;;;;;;;;13.56;59.00;99982.13;4960037;28;1910;-96
2022/05/21 06:20:34;;;;;;;;;;;;;;;13.55;58.99;99980.50;4952931;29;1287;-96
2022/05/21 06:23:00;;;;;;;;;;;;;;;13.55;58.98;99981.31;4948058;28;1236;-96
2022/05/21 06:25:29;;;;;;;;;;;;;;;13.54;59.13;99978.88;4971993;28;1182;-96
2022/05/21 06:27:55;;;;;;;;;;;;;;;13.54;58.98;99982.41;4952935;29;1245;-96
2022/05/21 06:30:21;;;;;;;;;;;;;;;13.54;58.95;99981.59;4948298;28;1229;-96
2022/05/21 06:32:48;;;;;;;;;;;;;;;13.55;59.03;99980.50;4952600;29;1170;-96
2022/05/21 06:35:14;;;;;;;;;;;;;;;13.54;59.05;99977.00;4940820;29;1194;-96
2022/05/21 06:37:41;;;;;;;;;;;;;;;13.53;59.10;99979.94;4948284;28;1969;-96
2022/05/21 06:40:07;;;;;;;;;;;;;;;13.53;59.02;99972.66;4952370;29;1197;-96
2022/05/21 06:42:34;;;;;;;;;;;;;;;13.53;58.75;99978.06;4948350;28;1325;-96
2022/05/21 06:45:00;;;;;;;;;;;;;;;13.53;58.87;99969.97;4952211;29;1364;-96
2022/05/21 06:47:26;;;;;;;;;;;;;;;13.53;58.92;99969.97;4949829;28;1311;-96
2022/05/21 06:49:53;;;;;;;;;;;;;;;13.53;59.13;99972.66;4953495;29;1307;-96
2022/05/21 06:52:19;;;;;;;;;;;;;;;13.52;58.87;99968.31;4948400;28;1236;-96
2022/05/21 06:54:46;;;;;;;;;;;;;;;13.53;58.97;99974.53;4951275;29;1221;-96
2022/05/21 06:57:13;;;;;;;;;;;;;;;13.53;59.03;99969.13;4948394;28;1225;-96
2022/05/21 06:59:39;;;;;;;;;;;;;;;13.52;58.96;99962.91;4951876;29;2005;-96
2022/05/21 07:02:06;;;;;;;;;;;;;;;13.53;58.98;99975.38;4948576;28;1300;-96
2022/05/21 07:07:35;;;;;;;;;;;;;;;13.53;58.84;99978.06;4948395;28;1302;-96
2022/05/21 07:10:01;;;;;;;;;;;;;;;13.53;58.92;99971.81;4949241;29;1272;-96
2022/05/21 07:12:27;;;;;;;;;;;;;;;13.52;58.87;99970.19;4940220;29;1196;-96
2022/05/21 07:14:54;;;;;;;;;;;;;;;13.52;58.89;99970.19;4950298;28;1205;-96
2022/05/21 07:17:20;;;;;;;;;;;;;;;13.52;58.79;99975.63;4959143;28;1446;-96
2022/05/21 07:19:47;;;;;;;;;;;;;;;13.51;58.83;99979.41;4948938;29;1979;-96
2022/05/21 07:22:13;;;;;;;;;;;;;;;13.53;58.56;99988.06;4950553;28;1150;-96
2022/05/21 07:24:40;;;;;;;;;;;;;;;13.51;58.96;99985.63;4948886;29;1199;-96
2022/05/21 07:27:06;;;;;;;;;;;;;;;13.53;58.82;99985.34;4950873;28;1219;-96
2022/05/21 07:29:33;;;;;;;;;;;;;;;13.52;58.58;99987.25;4948840;29;1293;-96
2022/05/21 07:31:59;;;;;;;;;;;;;;;13.53;58.76;99990.75;4950755;28;1232;-96
2022/05/21 07:34:25;;;;;;;;;;;;;;;13.52;58.76;99987.25;4968319;28;1208;-96
2022/05/21 07:36:52;;;;;;;;;;;;;;;13.53;58.82;99993.47;4949194;29;1206;-96
2022/05/21 07:39:18;;;;;;;;;;;;;;;13.52;58.82;99998.06;4950096;28;1992;-96
2022/05/21 07:41:45;;;;;;;;;;;;;;;13.53;58.77;99996.16;4984260;28;1282;-96
2022/05/21 07:44:11;;;;;;;;;;;;;;;13.52;58.63;100002.66;4967888;28;1272;-96
2022/05/21 07:46:37;;;;;;;;;;;;;;;13.52;58.75;99997.25;4949133;29;1305;-96
2022/05/21 07:49:04;;;;;;;;;;;;;;;13.52;58.81;99997.25;4950269;28;1209;-96
2022/05/21 07:51:32;;;;;;;;;;;;;;;13.52;58.81;100002.66;4948761;29;1349;-96
2022/05/21 07:53:59;;;;;;;;;;;;;;;13.52;58.80;100008.06;4950227;28;1376;-96
2022/05/21 07:56:26;;;;;;;;;;;;;;;13.52;58.86;100010.78;4948457;29;1299;-96
2022/05/21 07:58:54;;;;;;;;;;;;;;;13.51;58.61;100007.25;4950565;28;1914;-96
2022/05/21 08:01:20;;;;;;;;;;;;;;;13.51;58.86;100006.44;4983491;28;1119;-96
2022/05/21 08:03:46;;;;;;;;;;;;;;;13.50;58.78;100011.03;4967261;28;1288;-96
2022/05/21 08:06:13;;;;;;;;;;;;;;;13.51;58.81;100015.38;4948779;29;1297;-96
2022/05/21 08:08:39;;;;;;;;;;;;;;;13.51;58.81;100009.97;4954286;28;1344;-96
2022/05/21 08:11:06;;;;;;;;;;;;;;;13.50;58.68;100010.19;4951914;29;1182;-96
2022/05/21 08:13:34;;;;;;;;;;;;;;;13.51;58.76;100014.56;4953954;28;1214;-96
2022/05/21 08:16:00;;;;;;;;;;;;;;;13.51;58.66;100019.97;4954044;28;1240;-96
2022/05/21 08:18:27;;;;;;;;;;;;;;;13.50;58.57;100027.28;4951398;29;1979;-96
2022/05/21 08:20:54;;;;;;;;;;;;;;;13.50;58.75;100021.88;4954191;28;1185;-96
2022/05/21 08:28:49;;;;;;;;;;;;;;;13.50;58.67;100029.13;4952599;28;1306;-96
2022/05/21 08:31:15;;;;;;;;;;;;;;;13.50;58.56;100037.25;4952685;29;1328;-96
2022/05/21 08:33:42;;;;;;;;;;;;;;;13.50;58.81;100046.22;4943237;29;1211;-96
2022/05/21 08:36:08;;;;;;;;;;;;;;;13.50;58.67;100045.38;4952516;28;1205;-96
2022/05/21 08:38:35;;;;;;;;;;;;;;;13.50;58.74;100048.06;4953012;29;1911;-96
2022/05/21 08:41:02;;;;;;;;;;;;;;;13.50;58.58;100042.66;4952637;28;1165;-96
2022/05/21 08:43:29;;;;;;;;;;;;;;;13.49;58.66;100043.75;4955135;29;1333;-96
2022/05/21 08:45:55;;;;;;;;;;;;;;;13.50;58.80;100048.06;4955142;28;1285;-96
2022/05/21 08:48:21;;;;;;;;;;;;;;;13.48;58.59;100045.63;4966614;28;1174;-96
2022/05/21 08:50:48;;;;;;;;;;;;;;;13.49;58.77;100059.97;4966969;28;1397;-96
2022/05/21 08:53:15;;;;;;;;;;;;;;;13.48;58.79;100064.56;4956992;29;1261;-96
2022/05/21 08:55:42;;;;;;;;;;;;;;;13.49;58.56;100074.31;4949008;29;1276;-96
2022/05/21 08:58:09;;;;;;;;;;;;;;;13.48;58.60;100078.09;4955049;28;1910;-96
2022/05/21 09:00:35;;;;;;;;;;;;;;;13.47;58.75;100084.59;4953389;29;1333;-96
2022/05/21 09:03:02;;;;;;;;;;;;;;;13.48;58.78;100080.81;4964038;28;1281;-96
2022/05/21 09:05:35;;;;;;;;;;;;;;;13.48;58.60;100082.69;4976942;28;1472;-96
2022/05/21 09:08:04;;;;;;;;;;;;;;;13.47;58.79;100087.28;4992301;28;925;-96
2022/05/21 09:10:31;;;;;;;;;;;;;;;13.47;58.59;100086.44;4972986;28;1258;-96
2022/05/21 09:12:58;;;;;;;;;;;;;;;13.46;58.82;100092.94;5004969;28;1319;-96
2022/05/21 09:18:06;;;;;;;;;;;;;;;13.44;58.89;100095.88;4930247;28;1906;-96
2022/05/21 09:20:33;;;;;;;;;;;;;;;13.44;58.82;100097.78;4960583;29;1295;-96
2022/05/21 09:23:02;;;;;;;;;;;;;;;13.44;58.77;100097.78;4963460;28;1296;-96
2022/05/21 09:25:29;;;;;;;;;;;;;;;13.44;58.72;100097.78;4961403;29;1379;-96
2022/05/21 09:27:56;;;;;;;;;;;;;;;13.42;58.89;100098.03;4951184;29;1203;-96
2022/05/21 09:30:25;;;;;;;;;;;;;;;13.43;58.90;100101.56;4955729;29;1198;-96
2022/05/21 09:32:52;;;;;;;;;;;;;;;13.40;58.95;100100.97;4967614;28;1355;-96
2022/05/21 09:35:19;;;;;;;;;;;;;;;13.42;58.89;100111.56;4963837;29;1444;-96
2022/05/21 09:37:46;;;;;;;;;;;;;;;13.42;58.79;100113.47;4957757;29;1452;-96
2022/05/21 09:40:17;;;;;;;;;;;;;;;13.41;58.66;100109.91;4956919;29;1966;-96
2022/05/21 09:45:32;;;;;;;;;;;;;;;13.40;58.77;100116.41;4960491;29;1435;-96
2022/05/21 09:50:50;;;;;;;;;;;;;;;13.39;58.88;100125.59;4975042;28;1305;-96
2022/05/21 10:36:59;;;;;;;;;;;;;;;13.33;58.71;100164.44;4902953;29;637;-96
2022/05/21 11:08:24;;;;;;;;;;;;;;;13.27;58.65;100187.06;4884915;29;982;-96
2022/05/21 11:50:05;;;;;;;;;;;;;;;13.27;58.70;100195.19;4968602;28;1075;-96
2022/05/21 11:55:18;;;;;;;;;;;;;;;13.26;58.53;100196.22;4944848;29;1443;-96
2022/05/21 11:57:49;;;;;;;;;;;;;;;13.26;58.65;100194.34;4973239;29;979;-96
2022/05/21 12:00:16;;;;;;;;;;;;;;;13.27;58.56;100203.28;4951010;29;1999;-96
2022/05/21 12:02:48;;;;;;;;;;;;;;;13.26;58.54;100199.75;4943180;29;1455;-96
2022/05/21 12:05:16;;;;;;;;;;;;;;;13.27;58.62;100200.59;4956668;29;1298;-96
2022/05/21 12:07:44;;;;;;;;;;;;;;;13.26;58.57;100198.94;4954848;29;1413;-96
2022/05/21 12:10:10;;;;;;;;;;;;;;;13.27;58.60;100208.69;4959564;29;1335;-96
2022/05/21 12:12:37;;;;;;;;;;;;;;;13.27;58.52;100204.13;4961600;28;1243;-96
2022/05/21 12:15:04;;;;;;;;;;;;;;;13.26;58.67;100207.88;4967466;29;1241;-96
2022/05/21 12:17:32;;;;;;;;;;;;;;;13.26;58.69;100205.16;4962928;28;1387;-96
2022/05/21 13:14:23;;;;;;;;;;;;;;;13.28;58.54;100254.41;4902318;29;1300;-96
2022/05/21 13:17:26;;;;;;;;;;;;;;;13.28;58.74;100253.59;4901036;29;1277;-96
2022/05/21 13:20:00;;;;;;;;;;;;;;;13.28;58.63;100259.81;4869025;29;1888;-96
2022/05/21 13:22:36;;;;;;;;;;;;;;;13.28;58.63;100259.00;4885261;29;1227;-96
2022/05/21 13:25:06;;;;;;;;;;;;;;;13.27;58.70;100255.50;4884831;29;1257;-96
2022/05/21 13:27:35;;;;;;;;;;;;;;;13.27;58.72;100247.38;4867740;29;1064;-96
2022/05/21 13:32:49;;;;;;;;;;;;;;;13.28;58.79;100250.91;4953511;29;1362;-96
2022/05/21 13:35:17;;;;;;;;;;;;;;;13.27;58.81;100250.09;4953005;29;1182;-96
2022/05/21 13:37:45;;;;;;;;;;;;;;;13.28;58.60;100259.00;4950190;29;1023;-96
2022/05/21 13:40:12;;;;;;;;;;;;;;;13.27;58.62;100255.50;4929696;29;1914;-96
2022/05/21 13:42:39;;;;;;;;;;;;;;;13.27;58.71;100255.50;4954754;29;1282;-96
2022/05/21 13:45:06;;;;;;;;;;;;;;;13.27;58.59;100269.00;4931420;29;1281;-96
2022/05/21 13:47:33;;;;;;;;;;;;;;;13.27;58.85;100263.59;4936054;29;1206;-96
2022/05/21 13:50:01;;;;;;;;;;;;;;;13.27;58.77;100260.09;4954407;29;1300;-96
2022/05/21 13:52:28;;;;;;;;;;;;;;;13.27;58.58;100266.31;4947254;29;1307;-96
2022/05/21 13:54:55;;;;;;;;;;;;;;;13.28;58.72;100267.13;4965197;28;1309;-95
2022/05/21 13:57:21;;;;;;;;;;;;;;;13.28;58.69;100272.53;4962339;28;1407;-96
2022/05/21 13:59:48;;;;;;;;;;;;;;;13.28;58.64;100273.34;4948056;29;1980;-96
2022/05/21 14:02:15;;;;;;;;;;;;;;;13.27;58.62;100271.72;4947275;29;1341;-96
2022/05/21 14:04:41;;;;;;;;;;;;;;;13.28;58.59;100280.66;4943852;29;1375;-96
2022/05/21 14:07:08;;;;;;;;;;;;;;;13.28;58.67;100273.34;4944989;29;1435;-96
2022/05/21 14:09:34;;;;;;;;;;;;;;;13.28;58.67;100270.66;4945568;29;1304;-96
2022/05/21 14:12:03;;;;;;;;;;;;;;;13.28;58.79;100270.66;4980216;28;1312;-96
2022/05/21 14:14:30;;;;;;;;;;;;;;;13.29;58.71;100274.16;4952746;29;1238;-96
2022/05/21 14:16:58;;;;;;;;;;;;;;;13.28;58.70;100273.34;4953459;29;1222;-96
2022/05/21 14:19:25;;;;;;;;;;;;;;;13.28;58.78;100277.94;4954041;29;1914;-96
2022/05/21 14:21:54;;;;;;;;;;;;;;;13.28;58.70;100280.66;4954673;29;1391;-96
2022/05/21 14:24:21;;;;;;;;;;;;;;;13.28;58.62;100281.47;4956145;29;1410;-96
2022/05/21 14:26:53;;;;;;;;;;;;;;;13.28;58.87;100277.94;4988607;28;1393;-96
2022/05/21 14:29:31;;;;;;;;;;;;;;;13.28;58.84;100283.34;4957302;29;1288;-96
2022/05/21 14:34:43;;;;;;;;;;;;;;;13.28;58.76;100283.34;4975382;29;882;-96
2022/05/21 14:37:13;;;;;;;;;;;;;;;13.29;58.98;100284.97;4958149;29;1276;-96
2022/05/21 14:39:43;;;;;;;;;;;;;;;13.29;58.72;100282.28;4957534;29;1982;-96
2022/05/21 14:42:13;;;;;;;;;;;;;;;13.28;58.90;100286.88;4956833;29;1182;-96
2022/05/21 14:44:41;;;;;;;;;;;;;;;13.29;58.59;100293.09;4957450;29;1283;-96
2022/05/21 14:52:49;;;;;;;;;;;;;;;13.28;58.86;100289.56;4955606;29;1411;-96
2022/05/21 14:52:51;;;;;;;;;;;;;;;13.28;58.63;100286.88;4988294;28;1374;-96
2022/05/21 14:55:18;;;;;;;;;;;;;;;13.29;58.82;100293.09;4984549;28;1382;-96
2022/05/21 14:57:48;;;;;;;;;;;;;;;13.29;58.94;100298.50;4987991;28;1244;-96
2022/05/21 15:00:27;;;;;;;;;;;;;;;13.29;58.67;100296.63;4980052;28;1895;-96
2022/05/21 15:02:54;;;;;;;;;;;;;;;13.28;58.84;100289.56;4953832;29;1272;-96
2022/05/21 15:05:21;;;;;;;;;;;;;;;13.28;58.71;100292.28;4960215;28;1182;-96
2022/05/21 15:07:48;;;;;;;;;;;;;;;13.28;58.71;100300.41;4943501;29;1257;-96
2022/05/21 15:10:14;;;;;;;;;;;;;;;13.29;58.64;100298.50;4959546;28;1273;-96
2022/05/21 15:12:41;;;;;;;;;;;;;;;13.29;58.55;100290.38;4942949;29;1266;-96
2022/05/21 15:15:07;;;;;;;;;;;;;;;13.29;58.86;100301.22;4942311;28;1300;-96
2022/05/21 15:17:34;;;;;;;;;;;;;;;13.29;58.86;100303.91;4941608;29;1218;-96
2022/05/21 15:20:00;;;;;;;;;;;;;;;13.29;58.77;100302.03;4957883;28;1903;-96
2022/05/21 15:22:28;;;;;;;;;;;;;;;13.29;58.91;100304.72;4941861;29;1174;-96
2022/05/21 15:24:54;;;;;;;;;;;;;;;13.29;58.89;100299.31;4957021;28;1177;-96
2022/05/21 15:27:21;;;;;;;;;;;;;;;13.30;58.89;100305.56;4941019;29;1166;-96
2022/05/21 15:29:47;;;;;;;;;;;;;;;13.29;58.93;100307.44;4957092;28;1174;-96
2022/05/21 15:32:14;;;;;;;;;;;;;;;13.29;58.77;100303.91;4941030;29;1198;-96
2022/05/21 15:34:41;;;;;;;;;;;;;;;13.29;58.90;100306.63;4957137;28;1368;-96
2022/05/21 15:37:09;;;;;;;;;;;;;;;13.29;58.90;100303.91;4940431;29;1209;-96
2022/05/21 15:39:36;;;;;;;;;;;;;;;13.29;58.87;100310.13;4937361;29;1968;-96
2022/05/21 15:42:03;;;;;;;;;;;;;;;13.28;58.91;100303.09;4940476;29;1154;-96
2022/05/21 15:44:29;;;;;;;;;;;;;;;13.29;58.78;100306.63;4921109;29;1306;-96
2022/05/21 15:46:56;;;;;;;;;;;;;;;13.29;58.74;100307.44;4940274;29;1293;-96
2022/05/21 15:49:22;;;;;;;;;;;;;;;13.28;58.72;100303.09;4921327;29;1243;-96
2022/05/21 15:51:49;;;;;;;;;;;;;;;13.28;58.74;100305.81;4921457;29;1396;-96
2022/05/21 15:54:15;;;;;;;;;;;;;;;13.28;58.91;100303.09;4937063;29;1549;-96
2022/05/21 15:56:42;;;;;;;;;;;;;;;13.29;58.63;100309.31;4920961;29;1296;-96
2022/05/21 15:59:08;;;;;;;;;;;;;;;13.28;58.85;100305.81;4940278;29;1907;-96
2022/05/21 16:01:35;;;;;;;;;;;;;;;13.29;58.74;100298.50;4972257;28;1196;-96
2022/05/21 16:04:02;;;;;;;;;;;;;;;13.28;58.85;100291.47;4939729;29;1130;-96
2022/05/21 16:06:29;;;;;;;;;;;;;;;13.28;58.73;100296.88;4939716;29;1260;-96
2022/05/21 16:08:55;;;;;;;;;;;;;;;13.28;58.71;100299.56;4972207;28;1182;-96
2022/05/21 16:11:21;;;;;;;;;;;;;;;13.28;58.89;100302.28;4940093;29;1205;-96
2022/05/21 16:13:48;;;;;;;;;;;;;;;13.27;58.73;100298.75;4972314;28;1216;-96
2022/05/21 16:16:14;;;;;;;;;;;;;;;13.28;58.69;100302.28;4939975;29;1218;-96
2022/05/21 16:18:43;;;;;;;;;;;;;;;13.26;58.79;100294.41;4972019;28;1319;-96